Time;durP1;ratioP1;P1;durP2;ratioP2;P2;SDS_P1;SDS_P2;PMS_P1;PMS_P2;Temp;Humidity;BMP_temperature;BMP_pressure;BME280_temperature;BME280_humidity;BME280_pressure;Samples;Min_cycle;Max_cycle;Signal;HPM_P1;HPM_P2
2022/08/15 00:00:47;;;;;;;;;;;;;;;21.84;100.00;100313.09;2613439;36;19946;-47
2022/08/15 00:03:19;;;;;;;;;;;;;;;21.74;100.00;100312.75;2612678;31;19993;-49
2022/08/15 00:05:48;;;;;;;;;;;;;;;21.63;100.00;100311.59;2613933;31;19950;-50
2022/08/15 00:08:17;;;;;;;;;;;;;;;21.59;100.00;100313.91;2610517;36;19947;-54
2022/08/15 00:10:45;;;;;;;;;;;;;;;21.62;100.00;100301.69;2614781;31;19950;-49
2022/08/15 00:13:14;;;;;;;;;;;;;;;21.60;100.00;100301.03;2612577;31;19954;-50
2022/08/15 00:15:43;;;;;;;;;;;;;;;21.59;100.00;100300.22;2613207;36;19954;-50
2022/08/15 00:18:13;;;;;;;;;;;;;;;21.49;100.00;100295.19;2609951;36;20722;-49
2022/08/15 00:20:42;;;;;;;;;;;;;;;21.54;100.00;100297.31;2610293;36;19974;-54
2022/08/15 00:23:13;;;;;;;;;;;;;;;21.57;100.00;100301.50;2610436;36;19955;-49
2022/08/15 00:25:42;;;;;;;;;;;;;;;21.39;100.00;100296.75;2610389;36;19985;-52
2022/08/15 00:28:10;;;;;;;;;;;;;;;21.27;100.00;100302.09;2610145;36;20363;-52
2022/08/15 00:30:39;;;;;;;;;;;;;;;21.33;100.00;100293.84;2610864;36;19948;-50
2022/08/15 00:33:08;;;;;;;;;;;;;;;21.37;100.00;100291.50;2614690;36;19998;-51
2022/08/15 00:35:41;;;;;;;;;;;;;;;21.30;100.00;100291.56;2610861;36;19951;-54
2022/08/15 00:38:11;;;;;;;;;;;;;;;21.35;100.00;100294.47;2610356;36;20045;-54
2022/08/15 00:43:21;;;;;;;;;;;;;;;21.45;100.00;100293.13;2611442;36;19954;-52
2022/08/15 00:45:49;;;;;;;;;;;;;;;21.47;100.00;100289.13;2609628;36;19946;-51
2022/08/15 00:51:01;;;;;;;;;;;;;;;21.45;100.00;100284.91;2611288;36;19997;-49
2022/08/15 00:53:29;;;;;;;;;;;;;;;21.33;100.00;100296.59;2610652;36;20476;-51
2022/08/15 00:55:59;;;;;;;;;;;;;;;21.28;100.00;100296.41;2611510;36;19958;-54
2022/08/15 00:58:27;;;;;;;;;;;;;;;21.31;100.00;100287.75;2611392;31;20041;-51
2022/08/15 01:00:56;;;;;;;;;;;;;;;21.39;100.00;100280.31;2611320;31;19954;-50
2022/08/15 01:03:27;;;;;;;;;;;;;;;21.31;100.00;100284.19;2610828;36;19982;-51
2022/08/15 01:05:56;;;;;;;;;;;;;;;21.33;100.00;100279.31;2611024;31;19950;-54
2022/08/15 01:08:29;;;;;;;;;;;;;;;21.31;100.00;100271.31;2610080;36;19983;-49
2022/08/15 01:10:59;;;;;;;;;;;;;;;21.26;100.00;100284.84;2610268;36;19962;-55
2022/08/15 01:13:27;;;;;;;;;;;;;;;21.28;100.00;100273.69;2611525;36;20381;-49
2022/08/15 01:15:55;;;;;;;;;;;;;;;21.29;100.00;100272.59;2611557;36;20355;-52
2022/08/15 01:18:23;;;;;;;;;;;;;;;21.30;100.00;100275.16;2610669;36;20329;-48
2022/08/15 01:20:54;;;;;;;;;;;;;;;21.23;100.00;100273.50;2610538;36;20401;-47
2022/08/15 01:23:25;;;;;;;;;;;;;;;21.23;100.00;100263.41;2610553;36;20013;-52
2022/08/15 01:25:59;;;;;;;;;;;;;;;21.20;100.00;100268.47;2611073;36;20444;-52
2022/08/15 01:28:29;;;;;;;;;;;;;;;21.22;100.00;100260.88;2610457;36;19955;-49
2022/08/15 01:30:59;;;;;;;;;;;;;;;21.28;100.00;100262.72;2610098;36;19951;-50
2022/08/15 01:33:31;;;;;;;;;;;;;;;21.23;100.00;100262.53;2611108;36;19950;-51
2022/08/15 01:36:00;;;;;;;;;;;;;;;21.27;100.00;100261.03;2610843;36;19958;-50
2022/08/15 01:38:30;;;;;;;;;;;;;;;21.31;100.00;100252.16;2610967;36;19950;-51
2022/08/15 01:41:09;;;;;;;;;;;;;;;21.38;100.00;100248.53;2610035;36;19950;-47
2022/08/15 01:43:45;;;;;;;;;;;;;;;21.42;100.00;100257.97;2610641;36;20411;-51
2022/08/15 01:46:14;;;;;;;;;;;;;;;21.48;100.00;100254.34;2610504;36;20054;-48
2022/08/15 01:48:44;;;;;;;;;;;;;;;21.50;100.00;100263.19;2610429;36;19977;-49
2022/08/15 01:51:12;;;;;;;;;;;;;;;21.52;100.00;100256.47;2611802;36;20478;-50
2022/08/15 01:53:43;;;;;;;;;;;;;;;21.58;100.00;100249.25;2610594;36;19957;-52
2022/08/15 01:56:16;;;;;;;;;;;;;;;21.62;100.00;100244.16;2611234;36;20356;-51
2022/08/15 01:58:45;;;;;;;;;;;;;;;21.65;100.00;100241.81;2613067;36;19973;-51
2022/08/15 02:01:15;;;;;;;;;;;;;;;21.70;100.00;100236.50;2610574;36;19977;-50
2022/08/15 02:03:44;;;;;;;;;;;;;;;21.70;100.00;100241.97;2609490;36;19946;-48
2022/08/15 02:06:14;;;;;;;;;;;;;;;21.66;100.00;100240.75;2610860;31;19946;-52
2022/08/15 02:08:44;;;;;;;;;;;;;;;21.68;100.00;100230.41;2610378;36;20359;-52
2022/08/15 02:11:18;;;;;;;;;;;;;;;21.66;100.00;100226.22;2610848;36;19947;-52
2022/08/15 02:13:46;;;;;;;;;;;;;;;21.60;100.00;100227.97;2610006;36;19958;-48
2022/08/15 02:16:15;;;;;;;;;;;;;;;21.58;100.00;100221.84;2609125;31;19958;-51
2022/08/15 02:18:43;;;;;;;;;;;;;;;21.61;100.00;100220.56;2605102;36;19970;-52
2022/08/15 02:21:11;;;;;;;;;;;;;;;21.62;100.00;100223.09;2607177;36;20463;-52
2022/08/15 02:23:40;;;;;;;;;;;;;;;21.55;100.00;100219.56;2607686;36;19962;-52
2022/08/15 02:26:11;;;;;;;;;;;;;;;21.57;100.00;100224.81;2641125;36;19971;-54
2022/08/15 02:28:44;;;;;;;;;;;;;;;21.56;100.00;100224.00;2604920;36;19969;-51
2022/08/15 02:31:15;;;;;;;;;;;;;;;21.56;100.00;100224.00;2606531;36;20315;-54
2022/08/15 02:33:44;;;;;;;;;;;;;;;21.50;100.00;100224.88;2606752;36;20332;-52
2022/08/15 02:36:13;;;;;;;;;;;;;;;21.46;100.00;100229.09;2605279;31;20017;-52
2022/08/15 02:38:41;;;;;;;;;;;;;;;21.53;100.00;100227.19;2604559;36;19938;-52
2022/08/15 02:41:09;;;;;;;;;;;;;;;21.57;100.00;100233.91;2601251;36;20022;-51
2022/08/15 02:43:46;;;;;;;;;;;;;;;21.48;100.00;100232.44;2601353;36;19951;-51
2022/08/15 02:46:16;;;;;;;;;;;;;;;21.33;100.00;100230.91;2600138;36;19953;-52
2022/08/15 02:48:45;;;;;;;;;;;;;;;21.49;100.00;100234.13;2600255;36;19946;-51
2022/08/15 02:51:14;;;;;;;;;;;;;;;21.59;100.00;100215.31;2601557;36;20444;-52
2022/08/15 02:53:43;;;;;;;;;;;;;;;21.64;100.00;100215.50;2599630;36;19977;-53
2022/08/15 02:56:11;;;;;;;;;;;;;;;21.62;100.00;100212.13;2602214;36;19958;-50
2022/08/15 02:58:40;;;;;;;;;;;;;;;21.63;100.00;100219.28;2603436;31;20456;-51
2022/08/15 03:01:11;;;;;;;;;;;;;;;21.65;100.00;100222.63;2602989;36;19985;-51
2022/08/15 03:03:40;;;;;;;;;;;;;;;21.65;100.00;100211.69;2600446;36;20073;-53
2022/08/15 03:06:10;;;;;;;;;;;;;;;21.70;100.00;100214.59;2602379;36;19950;-53
2022/08/15 03:08:38;;;;;;;;;;;;;;;21.72;100.00;100214.38;2601152;36;20491;-54
2022/08/15 03:11:07;;;;;;;;;;;;;;;21.76;100.00;100217.47;2601260;36;19954;-54
2022/08/15 03:13:35;;;;;;;;;;;;;;;21.68;100.00;100215.88;2602340;31;20453;-53
2022/08/15 03:16:04;;;;;;;;;;;;;;;21.69;100.00;100229.34;2601792;36;20041;-53
2022/08/15 03:18:36;;;;;;;;;;;;;;;21.56;100.00;100232.22;2601822;36;19950;-54
2022/08/15 03:21:07;;;;;;;;;;;;;;;21.67;100.00;100236.97;2598994;36;19946;-48
2022/08/15 03:23:36;;;;;;;;;;;;;;;21.63;100.00;100230.25;2599654;36;19950;-49
2022/08/15 03:26:05;;;;;;;;;;;;;;;21.55;100.00;100233.25;2602248;36;20009;-50
2022/08/15 03:28:34;;;;;;;;;;;;;;;21.63;100.00;100223.94;2602591;36;20376;-51
2022/08/15 03:31:03;;;;;;;;;;;;;;;21.61;100.00;100226.06;2603493;36;19954;-52
2022/08/15 03:33:32;;;;;;;;;;;;;;;21.61;100.00;100220.56;2600454;36;19959;-52
2022/08/15 03:36:03;;;;;;;;;;;;;;;21.69;100.00;100218.38;2602666;36;19962;-51
2022/08/15 03:38:31;;;;;;;;;;;;;;;21.75;100.00;100216.66;2603209;31;20028;-50
2022/08/15 03:40:59;;;;;;;;;;;;;;;21.74;100.00;100220.44;2602181;36;19986;-51
2022/08/15 03:43:28;;;;;;;;;;;;;;;21.71;100.00;100231.84;2600319;36;19958;-54
2022/08/15 03:45:58;;;;;;;;;;;;;;;21.65;100.00;100233.59;2603915;36;19995;-52
2022/08/15 03:48:29;;;;;;;;;;;;;;;21.57;100.00;100220.19;2603583;36;19946;-51
2022/08/15 03:50:58;;;;;;;;;;;;;;;21.60;100.00;100217.00;2602386;36;19977;-52
2022/08/15 03:53:30;;;;;;;;;;;;;;;21.78;100.00;100215.38;2602338;36;19955;-50
2022/08/15 03:55:58;;;;;;;;;;;;;;;21.78;100.00;100216.19;2601550;36;19982;-55
2022/08/15 03:58:27;;;;;;;;;;;;;;;21.76;100.00;100214.75;2601139;36;19966;-49
2022/08/15 04:00:55;;;;;;;;;;;;;;;21.74;100.00;100217.72;2602743;36;20475;-53
2022/08/15 04:03:24;;;;;;;;;;;;;;;21.83;100.00;100218.25;2604121;36;20428;-53
2022/08/15 04:05:54;;;;;;;;;;;;;;;21.82;100.00;100202.88;2601318;36;19962;-51
2022/08/15 04:08:23;;;;;;;;;;;;;;;21.77;100.00;100202.72;2603006;36;19958;-52
2022/08/15 04:10:55;;;;;;;;;;;;;;;21.76;100.00;100190.09;2602046;36;20049;-51
2022/08/15 04:13:25;;;;;;;;;;;;;;;21.76;100.00;100181.88;2602530;36;21793;-52
2022/08/15 04:15:53;;;;;;;;;;;;;;;21.94;100.00;100176.41;2601629;36;19963;-52
2022/08/15 04:18:21;;;;;;;;;;;;;;;21.97;100.00;100180.63;2602042;36;20051;-52
2022/08/15 04:20:49;;;;;;;;;;;;;;;21.86;100.00;100168.50;2602196;36;19957;-54
2022/08/15 04:23:17;;;;;;;;;;;;;;;21.86;100.00;100163.00;2601301;36;19966;-52
2022/08/15 04:25:45;;;;;;;;;;;;;;;21.75;100.00;100170.09;2599440;31;20078;-52
2022/08/15 04:28:17;;;;;;;;;;;;;;;21.72;100.00;100170.56;2599934;36;19946;-49
2022/08/15 04:30:46;;;;;;;;;;;;;;;21.66;100.00;100180.50;2597999;36;20376;-50
2022/08/15 04:33:16;;;;;;;;;;;;;;;21.60;100.00;100197.84;2599153;36;19974;-52
2022/08/15 04:35:45;;;;;;;;;;;;;;;21.52;100.00;100192.63;2600701;36;20526;-52
2022/08/15 04:38:13;;;;;;;;;;;;;;;21.80;100.00;100192.16;2600236;36;19950;-48
2022/08/15 04:40:43;;;;;;;;;;;;;;;22.00;100.00;100191.13;2601148;36;20101;-47
2022/08/15 04:43:11;;;;;;;;;;;;;;;21.69;100.00;100201.97;2599075;36;20459;-53
2022/08/15 04:45:43;;;;;;;;;;;;;;;21.65;100.00;100187.03;2600853;36;19950;-51
2022/08/15 04:48:14;;;;;;;;;;;;;;;21.66;100.00;100183.25;2599973;31;20336;-53
2022/08/15 04:50:43;;;;;;;;;;;;;;;21.69;100.00;100184.69;2602183;36;19958;-50
2022/08/15 04:53:11;;;;;;;;;;;;;;;21.80;100.00;100180.38;2597720;36;19986;-51
2022/08/15 04:55:42;;;;;;;;;;;;;;;21.79;100.00;100178.69;2602428;36;19955;-52
2022/08/15 04:58:10;;;;;;;;;;;;;;;21.81;100.00;100177.41;2600379;31;19994;-50
2022/08/15 05:00:40;;;;;;;;;;;;;;;21.96;100.00;100185.25;2602517;36;20506;-53
2022/08/15 05:03:12;;;;;;;;;;;;;;;22.20;100.00;100186.25;2600614;36;19954;-53
2022/08/15 05:05:41;;;;;;;;;;;;;;;22.16;100.00;100185.00;2603519;36;19966;-55
2022/08/15 05:08:10;;;;;;;;;;;;;;;22.15;100.00;100177.03;2601663;31;20378;-54
2022/08/15 05:10:39;;;;;;;;;;;;;;;22.21;100.00;100176.09;2600887;36;19951;-50
2022/08/15 05:13:11;;;;;;;;;;;;;;;22.23;100.00;100163.00;2599735;31;20061;-54
2022/08/15 05:15:39;;;;;;;;;;;;;;;22.27;100.00;100169.69;2603583;31;19947;-53
2022/08/15 05:18:07;;;;;;;;;;;;;;;22.30;100.00;100166.50;2599391;36;20081;-50
2022/08/15 05:20:39;;;;;;;;;;;;;;;22.32;100.00;100166.28;2600113;36;19989;-50
2022/08/15 05:23:09;;;;;;;;;;;;;;;22.45;100.00;100165.28;2599603;31;20469;-50
2022/08/15 05:25:38;;;;;;;;;;;;;;;22.56;100.00;100172.72;2603375;36;20013;-51
2022/08/15 05:28:06;;;;;;;;;;;;;;;22.43;100.00;100175.66;2605415;36;19951;-51
2022/08/15 05:30:34;;;;;;;;;;;;;;;22.45;100.00;100184.47;2607021;36;20003;-51
2022/08/15 05:33:03;;;;;;;;;;;;;;;22.54;100.00;100180.34;2604520;36;19996;-54
2022/08/15 05:35:32;;;;;;;;;;;;;;;22.71;100.00;100186.84;2608898;36;19950;-46
2022/08/15 05:38:06;;;;;;;;;;;;;;;22.63;100.00;100195.41;2606141;36;19981;-53
2022/08/15 05:40:41;;;;;;;;;;;;;;;22.69;100.00;100182.69;2605878;36;19951;-47
2022/08/15 05:43:15;;;;;;;;;;;;;;;22.84;100.00;100190.47;2606526;36;19947;-52
2022/08/15 05:45:48;;;;;;;;;;;;;;;22.84;100.00;100204.19;2610620;36;19977;-51
2022/08/15 05:48:17;;;;;;;;;;;;;;;23.03;100.00;100211.28;2611266;36;20000;-50
2022/08/15 05:50:51;;;;;;;;;;;;;;;23.20;100.00;100213.38;2614086;54;19954;-50
2022/08/15 05:53:29;;;;;;;;;;;;;;;23.21;100.00;100226.03;2613397;36;20428;-54
2022/08/15 05:56:01;;;;;;;;;;;;;;;23.30;100.00;100232.88;2615173;36;19951;-48
2022/08/15 05:58:33;;;;;;;;;;;;;;;23.19;100.00;100233.66;2613699;36;19981;-49
2022/08/15 06:01:07;;;;;;;;;;;;;;;23.11;100.00;100247.75;2609068;36;19958;-50
2022/08/15 06:03:36;;;;;;;;;;;;;;;23.02;100.00;100248.03;2608202;36;19967;-53
2022/08/15 06:06:08;;;;;;;;;;;;;;;23.08;100.00;100238.84;2609834;31;20046;-52
2022/08/15 06:08:43;;;;;;;;;;;;;;;23.00;100.00;100233.72;2609768;36;19978;-49
2022/08/15 06:11:13;;;;;;;;;;;;;;;23.04;100.00;100229.44;2611944;36;19955;-53
2022/08/15 06:13:43;;;;;;;;;;;;;;;22.96;100.00;100224.28;2611847;36;19974;-51
2022/08/15 06:16:16;;;;;;;;;;;;;;;22.65;100.00;100231.66;2613979;31;20449;-52
2022/08/15 06:18:44;;;;;;;;;;;;;;;22.60;100.00;100228.78;2610984;36;19954;-49
2022/08/15 06:21:16;;;;;;;;;;;;;;;22.56;100.00;100222.09;2611388;36;19951;-51
2022/08/15 06:23:54;;;;;;;;;;;;;;;22.68;100.00;100222.97;2611235;36;19989;-49
2022/08/15 06:26:27;;;;;;;;;;;;;;;22.72;100.00;100226.94;2612497;36;20332;-52
2022/08/15 06:29:03;;;;;;;;;;;;;;;22.92;100.00;100226.66;2611181;31;19978;-52
2022/08/15 06:31:33;;;;;;;;;;;;;;;23.00;100.00;100225.47;2611449;36;19970;-52
2022/08/15 06:34:10;;;;;;;;;;;;;;;23.07;100.00;100222.63;2613997;36;20065;-49
2022/08/15 06:36:41;;;;;;;;;;;;;;;23.33;100.00;100232.38;2614617;36;19950;-51
2022/08/15 06:39:18;;;;;;;;;;;;;;;23.17;100.00;100222.91;2614609;36;19950;-52
2022/08/15 06:41:50;;;;;;;;;;;;;;;23.27;100.00;100230.59;2613465;31;19958;-51
2022/08/15 06:44:20;;;;;;;;;;;;;;;23.54;100.00;100222.75;2614586;36;20347;-51
2022/08/15 06:46:50;;;;;;;;;;;;;;;23.70;100.00;100225.84;2615210;36;20355;-49
2022/08/15 06:49:21;;;;;;;;;;;;;;;23.75;100.00;100235.06;2614931;36;20806;-52
2022/08/15 06:51:49;;;;;;;;;;;;;;;23.67;100.00;100238.16;2614361;36;19957;-50
2022/08/15 06:54:22;;;;;;;;;;;;;;;23.85;100.00;100228.13;2615044;36;20342;-50
2022/08/15 06:56:57;;;;;;;;;;;;;;;23.89;100.00;100237.59;2611420;36;19946;-50
2022/08/15 06:59:28;;;;;;;;;;;;;;;24.21;100.00;100237.22;2614902;36;20553;-50
2022/08/15 07:02:03;;;;;;;;;;;;;;;24.24;100.00;100232.06;2613567;36;19970;-49
2022/08/15 07:04:35;;;;;;;;;;;;;;;24.54;100.00;100231.00;2614685;36;19977;-49
2022/08/15 07:07:07;;;;;;;;;;;;;;;24.67;100.00;100227.16;2613734;36;19946;-50
2022/08/15 07:09:53;;;;;;;;;;;;;;;25.02;100.00;100231.69;2614294;36;20413;-52
2022/08/15 07:12:24;;;;;;;;;;;;;;;24.88;100.00;100235.81;2613887;36;19950;-51
2022/08/15 07:14:57;;;;;;;;;;;;;;;24.98;100.00;100236.00;2614997;36;19950;-51
2022/08/15 07:17:27;;;;;;;;;;;;;;;25.09;100.00;100237.88;2614617;36;19939;-52
2022/08/15 07:19:55;;;;;;;;;;;;;;;25.34;100.00;100237.50;2615097;31;19950;-49
2022/08/15 07:22:24;;;;;;;;;;;;;;;25.35;100.00;100246.59;2614208;36;20351;-51
2022/08/15 07:24:56;;;;;;;;;;;;;;;25.48;100.00;100249.03;2614023;36;20702;-53
2022/08/15 07:27:29;;;;;;;;;;;;;;;25.68;100.00;100244.94;2608187;36;19981;-51
2022/08/15 07:29:59;;;;;;;;;;;;;;;26.05;100.00;100245.25;2610528;36;19946;-50
2022/08/15 07:32:29;;;;;;;;;;;;;;;26.28;100.00;100242.50;2601181;36;19950;-57
2022/08/15 07:35:07;;;;;;;;;;;;;;;26.15;100.00;100254.78;2611238;36;19967;-55
2022/08/15 07:37:37;;;;;;;;;;;;;;;26.31;100.00;100247.50;2611370;31;20044;-51
2022/08/15 07:40:10;;;;;;;;;;;;;;;25.74;100.00;100238.44;2610806;36;19953;-50
2022/08/15 07:42:42;;;;;;;;;;;;;;;26.01;100.00;100238.56;2610831;36;20010;-52
2022/08/15 07:45:15;;;;;;;;;;;;;;;26.27;100.00;100246.38;2611271;36;19985;-51
2022/08/15 07:47:54;;;;;;;;;;;;;;;26.29;100.00;100252.47;2611424;36;20409;-56
2022/08/15 07:50:30;;;;;;;;;;;;;;;26.32;100.00;100254.72;2611155;31;19977;-56
2022/08/15 07:52:58;;;;;;;;;;;;;;;26.33;100.00;100251.69;2609736;36;19955;-52
2022/08/15 07:55:29;;;;;;;;;;;;;;;26.28;100.00;100259.91;2610924;36;19947;-50
2022/08/15 07:58:01;;;;;;;;;;;;;;;26.34;100.00;100258.03;2612617;31;20446;-52
2022/08/15 08:00:30;;;;;;;;;;;;;;;26.22;100.00;100256.25;2614893;31;19958;-50
2022/08/15 08:03:02;;;;;;;;;;;;;;;26.31;100.00;100266.81;2614121;36;19955;-53
2022/08/15 08:05:45;;;;;;;;;;;;;;;26.35;100.00;100270.75;2614624;36;19959;-52
2022/08/15 08:08:13;;;;;;;;;;;;;;;26.05;100.00;100266.47;2614266;36;20356;-51
2022/08/15 08:10:50;;;;;;;;;;;;;;;25.91;100.00;100254.09;2614087;36;19954;-47
2022/08/15 08:13:29;;;;;;;;;;;;;;;26.01;100.00;100255.09;2612154;36;19995;-52
2022/08/15 08:16:03;;;;;;;;;;;;;;;26.03;100.00;100263.13;2612708;36;19957;-54
2022/08/15 08:18:35;;;;;;;;;;;;;;;26.33;100.00;100267.41;2611128;31;20546;-52
2022/08/15 08:21:06;;;;;;;;;;;;;;;26.35;100.00;100265.22;2610928;36;20527;-52
2022/08/15 08:23:37;;;;;;;;;;;;;;;26.68;100.00;100274.53;2610224;36;19975;-51
2022/08/15 08:26:11;;;;;;;;;;;;;;;26.83;100.00;100266.41;2611086;36;19974;-52
2022/08/15 08:28:44;;;;;;;;;;;;;;;27.05;100.00;100258.06;2610636;36;19950;-53
2022/08/15 08:31:16;;;;;;;;;;;;;;;26.95;100.00;100251.63;2611665;31;20431;-49
2022/08/15 08:33:49;;;;;;;;;;;;;;;26.96;100.00;100267.06;2604393;36;19962;-51
2022/08/15 08:36:21;;;;;;;;;;;;;;;26.81;100.00;100278.78;2610922;36;22783;-52
2022/08/15 08:38:54;;;;;;;;;;;;;;;26.60;100.00;100283.22;2603859;36;19946;-51
2022/08/15 08:41:34;;;;;;;;;;;;;;;26.49;100.00;100288.59;2610788;31;19997;-53
2022/08/15 08:44:18;;;;;;;;;;;;;;;26.54;100.00;100280.38;2610483;36;19950;-53
2022/08/15 08:47:02;;;;;;;;;;;;;;;26.86;100.00;100276.91;2610957;36;19977;-50
2022/08/15 08:49:36;;;;;;;;;;;;;;;27.18;100.00;100275.31;2611098;31;19951;-53
2022/08/15 08:52:08;;;;;;;;;;;;;;;27.26;100.00;100274.84;2611386;36;19958;-52
2022/08/15 08:54:40;;;;;;;;;;;;;;;26.57;100.00;100277.13;2611582;36;19958;-53
2022/08/15 08:57:15;;;;;;;;;;;;;;;26.73;100.00;100271.81;2611096;31;19996;-52
2022/08/15 08:59:51;;;;;;;;;;;;;;;27.07;100.00;100277.16;2612198;31;19969;-51
2022/08/15 09:02:21;;;;;;;;;;;;;;;27.12;100.00;100273.59;2611110;36;19979;-52
2022/08/15 09:04:51;;;;;;;;;;;;;;;26.88;100.00;100273.91;2611437;36;19958;-52
2022/08/15 09:07:22;;;;;;;;;;;;;;;26.88;100.00;100268.38;2610695;36;19950;-51
2022/08/15 09:09:52;;;;;;;;;;;;;;;27.24;100.00;100272.34;2610110;36;19981;-54
2022/08/15 09:15:08;;;;;;;;;;;;;;;28.00;100.00;100266.91;2610471;36;20555;-53
2022/08/15 09:17:38;;;;;;;;;;;;;;;28.23;96.93;100263.72;2610104;36;19950;-52
2022/08/15 09:20:09;;;;;;;;;;;;;;;28.04;100.00;100268.88;2611808;36;19977;-51
2022/08/15 09:22:37;;;;;;;;;;;;;;;28.22;98.02;100286.97;2610992;36;19954;-49
2022/08/15 09:25:06;;;;;;;;;;;;;;;27.83;100.00;100278.94;2607900;36;19938;-50
2022/08/15 09:27:39;;;;;;;;;;;;;;;27.40;100.00;100286.31;2611600;36;19970;-50
2022/08/15 09:30:09;;;;;;;;;;;;;;;27.59;100.00;100290.38;2610685;36;19977;-50
2022/08/15 09:32:48;;;;;;;;;;;;;;;27.86;91.50;100280.38;2610344;36;20351;-53
2022/08/15 09:35:25;;;;;;;;;;;;;;;27.50;100.00;100275.34;2609312;36;19958;-51
2022/08/15 09:38:09;;;;;;;;;;;;;;;27.66;95.38;100284.63;2603220;36;19959;-52
2022/08/15 09:40:52;;;;;;;;;;;;;;;27.18;100.00;100289.97;2610209;36;20281;-52
2022/08/15 09:43:31;;;;;;;;;;;;;;;27.41;100.00;100290.75;2608915;36;19947;-50
2022/08/15 09:46:10;;;;;;;;;;;;;;;28.12;99.93;100295.19;2604611;36;19985;-50
2022/08/15 09:48:50;;;;;;;;;;;;;;;28.65;87.80;100287.78;2613518;31;20518;-51
2022/08/15 09:51:25;;;;;;;;;;;;;;;28.41;92.05;100292.06;2611159;36;19955;-47
2022/08/15 09:54:03;;;;;;;;;;;;;;;28.28;89.84;100291.44;2611284;36;20372;-50
2022/08/15 09:56:33;;;;;;;;;;;;;;;28.23;95.80;100279.50;2610635;31;19985;-50
2022/08/15 09:59:11;;;;;;;;;;;;;;;28.71;92.40;100282.22;2612677;36;19957;-52
2022/08/15 10:01:44;;;;;;;;;;;;;;;28.78;85.79;100289.22;2611511;36;20026;-50
2022/08/15 10:04:14;;;;;;;;;;;;;;;29.45;80.11;100286.59;2611355;36;19963;-49
2022/08/15 10:06:53;;;;;;;;;;;;;;;29.06;81.26;100289.81;2608202;36;20432;-48
2022/08/15 10:09:32;;;;;;;;;;;;;;;29.46;79.72;100287.41;2611064;36;19969;-52
2022/08/15 10:12:21;;;;;;;;;;;;;;;28.69;74.71;100292.75;2611882;36;19954;-52
2022/08/15 10:15:06;;;;;;;;;;;;;;;28.84;71.42;100292.81;2611077;36;20062;-49
2022/08/15 10:17:45;;;;;;;;;;;;;;;28.49;74.49;100283.25;2611861;36;19951;-50
2022/08/15 10:20:28;;;;;;;;;;;;;;;28.11;76.80;100290.78;2611768;36;20791;-51
2022/08/15 10:22:58;;;;;;;;;;;;;;;28.05;83.30;100289.91;2612092;36;19954;-50
2022/08/15 10:25:31;;;;;;;;;;;;;;;28.54;79.47;100288.78;2612113;31;20363;-49
2022/08/15 10:28:02;;;;;;;;;;;;;;;27.71;79.60;100292.13;2611045;36;19955;-51
2022/08/15 10:30:35;;;;;;;;;;;;;;;27.85;86.28;100301.63;2606781;31;19950;-54
2022/08/15 10:33:03;;;;;;;;;;;;;;;28.20;85.11;100302.19;2604949;36;19954;-50
2022/08/15 10:35:35;;;;;;;;;;;;;;;27.98;85.28;100291.25;2601577;36;19955;-50
2022/08/15 10:38:04;;;;;;;;;;;;;;;28.61;78.29;100300.47;2607026;36;19950;-51
2022/08/15 10:40:37;;;;;;;;;;;;;;;28.53;86.37;100298.19;2610025;31;20443;-53
2022/08/15 10:43:22;;;;;;;;;;;;;;;28.35;83.16;100298.66;2612395;36;19977;-49
2022/08/15 10:45:59;;;;;;;;;;;;;;;28.46;84.50;100303.13;2605314;36;19950;-52
2022/08/15 10:48:37;;;;;;;;;;;;;;;28.39;85.67;100308.09;2613263;31;20347;-50
2022/08/15 10:51:11;;;;;;;;;;;;;;;28.48;88.96;100309.25;2612918;36;20041;-49
2022/08/15 10:53:47;;;;;;;;;;;;;;;28.27;92.69;100317.44;2604923;36;19985;-48
2022/08/15 10:56:16;;;;;;;;;;;;;;;27.70;98.89;100323.66;2613116;36;19962;-48
2022/08/15 10:58:46;;;;;;;;;;;;;;;27.44;100.00;100321.50;2609237;36;21069;-49
2022/08/15 11:01:24;;;;;;;;;;;;;;;27.32;100.00;100322.72;2613090;31;20462;-50
2022/08/15 11:03:55;;;;;;;;;;;;;;;27.94;100.00;100319.41;2611418;36;19939;-47
2022/08/15 11:06:24;;;;;;;;;;;;;;;27.72;100.00;100318.66;2612280;36;20421;-50
2022/08/15 11:08:54;;;;;;;;;;;;;;;28.15;100.00;100322.38;2609289;36;20440;-54
2022/08/15 11:11:23;;;;;;;;;;;;;;;28.27;100.00;100328.50;2611482;36;19955;-53
2022/08/15 11:14:06;;;;;;;;;;;;;;;28.12;100.00;100325.63;2612720;36;19942;-50
2022/08/15 11:16:40;;;;;;;;;;;;;;;28.29;100.00;100334.59;2609134;36;19950;-52
2022/08/15 11:19:19;;;;;;;;;;;;;;;27.94;100.00;100333.25;2610780;36;19947;-52
2022/08/15 11:21:51;;;;;;;;;;;;;;;27.48;100.00;100332.03;2610909;36;19951;-51
2022/08/15 11:24:27;;;;;;;;;;;;;;;27.58;100.00;100332.94;2610880;36;19954;-51
2022/08/15 11:27:10;;;;;;;;;;;;;;;27.47;100.00;100333.94;2610698;36;19947;-51
2022/08/15 11:29:39;;;;;;;;;;;;;;;27.36;100.00;100335.75;2610495;36;19950;-51
2022/08/15 11:32:11;;;;;;;;;;;;;;;27.42;100.00;100337.47;2610165;36;20533;-49
2022/08/15 11:34:41;;;;;;;;;;;;;;;27.22;100.00;100340.84;2610039;36;19985;-51
2022/08/15 11:37:12;;;;;;;;;;;;;;;26.77;100.00;100344.75;2609991;36;20348;-52
2022/08/15 11:39:42;;;;;;;;;;;;;;;26.79;100.00;100345.31;2610735;36;19986;-54
2022/08/15 11:42:15;;;;;;;;;;;;;;;26.81;100.00;100345.91;2610485;31;19951;-52
2022/08/15 11:44:47;;;;;;;;;;;;;;;26.99;100.00;100338.38;2610406;36;20030;-52
2022/08/15 11:47:19;;;;;;;;;;;;;;;26.54;100.00;100345.78;2610812;36;19989;-48
2022/08/15 11:49:49;;;;;;;;;;;;;;;26.55;100.00;100351.03;2609174;36;20367;-49
2022/08/15 11:52:23;;;;;;;;;;;;;;;26.29;100.00;100354.53;2604218;36;19954;-50
2022/08/15 11:55:06;;;;;;;;;;;;;;;26.22;100.00;100354.69;2609748;36;19950;-52
2022/08/15 11:57:41;;;;;;;;;;;;;;;26.48;100.00;100355.09;2609898;36;20429;-52
2022/08/15 12:00:14;;;;;;;;;;;;;;;26.72;100.00;100358.47;2605107;31;20359;-52
2022/08/15 12:02:44;;;;;;;;;;;;;;;26.67;100.00;100358.38;2609469;36;19974;-53
2022/08/15 12:05:15;;;;;;;;;;;;;;;26.66;100.00;100357.53;2609557;36;19985;-51
2022/08/15 12:07:45;;;;;;;;;;;;;;;26.72;100.00;100358.47;2610169;36;19961;-52
2022/08/15 12:10:28;;;;;;;;;;;;;;;26.81;100.00;100362.47;2609723;36;20491;-51
2022/08/15 12:12:57;;;;;;;;;;;;;;;26.95;100.00;100368.44;2610026;31;20471;-50
2022/08/15 12:15:27;;;;;;;;;;;;;;;27.22;100.00;100367.63;2609551;36;19973;-53
2022/08/15 12:18:10;;;;;;;;;;;;;;;27.84;100.00;100359.97;2610036;31;19951;-53
2022/08/15 12:20:43;;;;;;;;;;;;;;;27.68;100.00;100370.06;2610214;36;19950;-52
2022/08/15 12:23:20;;;;;;;;;;;;;;;27.92;100.00;100371.38;2610410;36;19981;-52
2022/08/15 12:25:51;;;;;;;;;;;;;;;28.52;100.00;100371.28;2612833;36;20417;-51
2022/08/15 12:28:20;;;;;;;;;;;;;;;28.39;100.00;100369.00;2611519;36;19954;-50
2022/08/15 12:30:48;;;;;;;;;;;;;;;28.53;100.00;100364.63;2612034;36;20347;-52
2022/08/15 12:33:17;;;;;;;;;;;;;;;27.96;100.00;100367.00;2609862;36;19946;-49
2022/08/15 12:35:48;;;;;;;;;;;;;;;27.87;100.00;100363.06;2610411;36;19989;-52
2022/08/15 12:38:16;;;;;;;;;;;;;;;28.02;100.00;100356.00;2610672;36;19938;-49
2022/08/15 12:40:44;;;;;;;;;;;;;;;28.55;100.00;100356.91;2609950;36;21331;-51
2022/08/15 12:43:12;;;;;;;;;;;;;;;28.03;100.00;100355.72;2610355;36;19947;-51
2022/08/15 12:45:40;;;;;;;;;;;;;;;28.08;100.00;100352.19;2610228;36;20466;-48
2022/08/15 12:48:14;;;;;;;;;;;;;;;28.01;100.00;100355.16;2610366;31;20359;-48
2022/08/15 12:50:42;;;;;;;;;;;;;;;28.08;100.00;100360.50;2611017;36;19981;-51
2022/08/15 12:53:13;;;;;;;;;;;;;;;28.29;100.00;100359.50;2610224;36;20444;-52
2022/08/15 12:55:42;;;;;;;;;;;;;;;28.70;100.00;100358.13;2611101;36;19946;-52
2022/08/15 12:58:10;;;;;;;;;;;;;;;28.67;100.00;100359.50;2611221;31;20466;-49